createdAt,value
2018-05-11T00:01:38.201Z,4.80
2018-05-11T00:04:06.448Z,4.87
2018-05-11T00:06:34.697Z,5.57
2018-05-11T00:09:02.918Z,4.90
2018-05-11T00:11:31.146Z,4.90
2018-05-11T00:14:00.157Z,4.27
2018-05-11T00:16:28.424Z,4.30
2018-05-11T00:18:56.696Z,4.33
2018-05-11T00:21:24.986Z,4.30
2018-05-11T00:23:53.210Z,4.43
2018-05-11T00:26:21.520Z,4.60
2018-05-11T00:28:49.789Z,4.87
2018-05-11T00:31:18.761Z,5.27
2018-05-11T00:33:47.747Z,5.57
2018-05-11T00:36:15.950Z,4.60
2018-05-11T00:38:44.170Z,4.60
2018-05-11T00:41:12.364Z,4.93
2018-05-11T00:43:40.593Z,5.30
2018-05-11T00:46:08.805Z,5.67
2018-05-11T00:48:37.025Z,5.90
2018-05-11T00:51:05.293Z,5.90
2018-05-11T00:53:33.461Z,5.93
2018-05-11T00:56:02.476Z,5.67
2018-05-11T00:58:30.737Z,6.20
2018-05-11T01:00:59.696Z,6.23
2018-05-11T01:03:27.910Z,7.23
2018-05-11T01:05:56.114Z,6.20
2018-05-11T01:08:24.360Z,6.00
2018-05-11T01:10:52.578Z,5.73
2018-05-11T01:13:20.813Z,5.90
2018-05-11T01:15:49.099Z,5.20
2018-05-11T01:18:17.336Z,6.03
2018-05-11T01:20:45.547Z,6.00
2018-05-11T01:23:13.916Z,5.97
2018-05-11T01:25:42.124Z,5.87
2018-05-11T01:28:10.364Z,4.90
2018-05-11T01:30:38.563Z,5.80
2018-05-11T01:33:06.806Z,5.70
2018-05-11T01:35:35.013Z,5.07
2018-05-11T01:38:03.253Z,4.93
2018-05-11T01:40:31.466Z,4.57
2018-05-11T01:42:59.688Z,4.83
2018-05-11T01:45:28.660Z,4.93
2018-05-11T01:47:56.880Z,4.50
2018-05-11T01:50:25.169Z,4.90
2018-05-11T01:52:53.417Z,4.63
2018-05-11T01:55:22.405Z,4.97
2018-05-11T01:57:51.417Z,4.83
2018-05-11T02:00:19.616Z,5.30
2018-05-11T02:02:47.842Z,5.10
2018-05-11T02:05:16.821Z,5.00
2018-05-11T02:07:45.049Z,5.30
2018-05-11T02:10:13.366Z,4.80
2018-05-11T02:12:41.554Z,4.90
2018-05-11T02:15:10.662Z,5.17
2018-05-11T02:17:39.672Z,5.80
2018-05-11T02:20:08.247Z,5.93
2018-05-11T02:22:37.209Z,4.80
2018-05-11T02:25:05.432Z,4.73
2018-05-11T02:27:33.644Z,4.50
2018-05-11T02:30:02.126Z,5.60
2018-05-11T02:32:30.327Z,4.70
2018-05-11T02:34:59.309Z,4.97
2018-05-11T02:37:27.608Z,4.77
2018-05-11T02:39:55.893Z,4.97
2018-05-11T02:42:24.125Z,5.17
2018-05-11T02:44:52.353Z,5.20
2018-05-11T02:47:20.588Z,5.60
2018-05-11T02:49:48.817Z,5.67
2018-05-11T02:52:17.063Z,5.77
2018-05-11T02:54:45.289Z,6.13
2018-05-11T02:57:13.496Z,5.77
2018-05-11T02:59:42.497Z,4.93
2018-05-11T03:02:11.468Z,5.57
2018-05-11T03:04:40.462Z,5.43
2018-05-11T03:07:08.793Z,5.37
2018-05-11T03:09:37.021Z,5.57
2018-05-11T03:12:06.024Z,5.50
2018-05-11T03:14:35.129Z,5.37
2018-05-11T03:17:04.105Z,5.47
2018-05-11T03:19:33.121Z,5.80
2018-05-11T03:22:01.332Z,6.10
2018-05-11T03:24:29.545Z,5.90
2018-05-11T03:26:58.528Z,6.23
2018-05-11T03:29:26.753Z,5.73
2018-05-11T03:31:54.958Z,6.10
2018-05-11T03:34:23.185Z,6.33
2018-05-11T03:36:51.407Z,6.37
2018-05-11T03:39:19.637Z,6.67
2018-05-11T03:41:47.915Z,7.40
2018-05-11T03:44:16.156Z,6.80
2018-05-11T03:46:44.463Z,6.80
2018-05-11T03:49:12.692Z,7.00
2018-05-11T03:51:41.000Z,6.20
2018-05-11T03:54:09.960Z,6.17
2018-05-11T03:56:38.189Z,6.00
2018-05-11T03:59:06.404Z,6.60
2018-05-11T04:01:46.592Z,7.00
2018-05-11T04:04:27.582Z,7.00
2018-05-11T04:07:08.512Z,7.20
2018-05-11T04:09:36.736Z,7.23
2018-05-11T04:12:04.967Z,6.63
2018-05-11T04:14:33.195Z,6.80
2018-05-11T04:17:01.410Z,7.10
2018-05-11T04:19:29.721Z,6.43
2018-05-11T04:21:57.952Z,6.33
2018-05-11T04:24:26.160Z,6.83
2018-05-11T04:26:55.165Z,7.50
2018-05-11T04:29:23.377Z,6.50
2018-05-11T04:31:51.705Z,6.87
2018-05-11T04:34:20.704Z,6.30
2018-05-11T04:36:48.985Z,7.30
2018-05-11T04:39:17.263Z,6.50
2018-05-11T04:41:45.536Z,5.90
2018-05-11T04:44:13.744Z,6.33
2018-05-11T04:46:42.048Z,7.07
2018-05-11T04:49:10.260Z,6.70
2018-05-11T04:51:39.256Z,6.70
2018-05-11T04:54:07.538Z,5.70
2018-05-11T04:56:35.754Z,6.43
2018-05-11T04:59:04.086Z,6.00
2018-05-11T05:01:32.372Z,6.27
2018-05-11T05:04:00.586Z,6.23
2018-05-11T05:06:28.821Z,6.83
2018-05-11T05:08:57.056Z,6.17
2018-05-11T05:11:25.522Z,6.00
2018-05-11T05:13:53.699Z,6.47
2018-05-11T05:16:22.012Z,6.43
2018-05-11T05:18:50.230Z,6.33
2018-05-11T05:21:19.452Z,6.43
2018-05-11T05:23:47.662Z,6.33
2018-05-11T05:26:15.896Z,7.27
2018-05-11T05:28:44.208Z,8.47
2018-05-11T05:31:12.441Z,6.97
2018-05-11T05:33:40.653Z,6.77
2018-05-11T05:36:09.637Z,6.67
2018-05-11T05:38:38.616Z,6.93
2018-05-11T05:41:06.864Z,6.77
2018-05-11T05:43:35.075Z,7.17
2018-05-11T05:46:04.057Z,6.60
2018-05-11T05:48:32.368Z,7.00
2018-05-11T05:51:00.620Z,7.23
2018-05-11T05:53:28.840Z,7.47
2018-05-11T05:55:57.069Z,7.13
2018-05-11T05:58:26.119Z,7.07
2018-05-11T06:00:54.298Z,6.87
2018-05-11T06:03:22.516Z,6.70
2018-05-11T06:05:51.500Z,6.40
2018-05-11T06:08:20.574Z,6.17
2018-05-11T06:10:48.849Z,6.40
2018-05-11T06:13:17.073Z,6.50
2018-05-11T06:15:45.302Z,6.67
2018-05-11T06:18:13.513Z,6.03
2018-05-11T06:20:41.738Z,6.60
2018-05-11T06:23:10.235Z,6.33
2018-05-11T06:25:38.585Z,6.63
2018-05-11T06:28:06.816Z,6.87
2018-05-11T06:30:35.812Z,7.83
2018-05-11T06:33:04.101Z,8.10
2018-05-11T06:35:32.313Z,7.53
2018-05-11T06:38:00.572Z,7.77
2018-05-11T06:40:28.799Z,8.40
2018-05-11T06:42:57.025Z,8.97
2018-05-11T06:45:25.400Z,9.57
2018-05-11T06:47:53.615Z,10.07
2018-05-11T06:50:21.837Z,9.87
2018-05-11T06:52:50.072Z,9.77
2018-05-11T06:55:18.364Z,9.27
2018-05-11T06:57:46.640Z,10.33
2018-05-11T07:00:14.868Z,10.50
2018-05-11T07:02:43.206Z,10.40
2018-05-11T07:05:11.465Z,10.67
2018-05-11T07:07:39.747Z,9.77
2018-05-11T07:10:08.185Z,10.57
2018-05-11T07:12:36.437Z,10.07
2018-05-11T07:15:04.678Z,10.70
2018-05-11T07:17:32.916Z,10.00
2018-05-11T07:20:01.247Z,10.57
2018-05-11T07:22:29.518Z,10.17
2018-05-11T07:24:57.720Z,10.57
2018-05-11T07:27:25.963Z,10.03
2018-05-11T07:29:54.216Z,10.23
2018-05-11T07:32:23.212Z,9.50
2018-05-11T07:34:52.206Z,10.20
2018-05-11T07:37:21.195Z,10.10
2018-05-11T07:39:50.208Z,10.40
2018-05-11T07:42:18.473Z,10.73
2018-05-11T07:44:46.689Z,9.90
2018-05-11T07:47:14.913Z,9.73
2018-05-11T07:49:43.897Z,9.97
2018-05-11T07:52:12.901Z,9.67
2018-05-11T07:54:41.882Z,9.40
2018-05-11T07:57:10.113Z,9.23
2018-05-11T07:59:38.386Z,9.47
2018-05-11T08:02:06.637Z,9.67
2018-05-11T08:04:34.840Z,10.17
2018-05-11T08:07:03.122Z,10.20
2018-05-11T08:09:31.813Z,9.93
2018-05-11T08:12:00.001Z,10.23
2018-05-11T08:14:29.761Z,10.77
2018-05-11T08:16:57.987Z,10.53
2018-05-11T08:19:26.200Z,10.00
2018-05-11T08:21:54.436Z,10.30
2018-05-11T08:24:22.760Z,9.17
2018-05-11T08:26:51.093Z,10.27
2018-05-11T08:29:19.269Z,10.80
2018-05-11T08:31:47.494Z,11.10
2018-05-11T08:34:15.713Z,12.27
2018-05-11T08:36:45.259Z,11.97
2018-05-11T08:39:13.481Z,11.03
2018-05-11T08:41:41.719Z,10.90
2018-05-11T08:44:09.949Z,10.70
2018-05-11T08:46:38.169Z,11.57
2018-05-11T08:49:06.433Z,11.23
2018-05-11T08:51:34.708Z,10.67
2018-05-11T08:54:02.953Z,13.13
2018-05-11T08:56:31.262Z,11.23
2018-05-11T08:58:59.505Z,10.80
2018-05-11T09:01:27.829Z,11.07
2018-05-11T09:03:56.055Z,11.17
2018-05-11T09:06:24.284Z,9.50
2018-05-11T09:08:52.515Z,9.17
2018-05-11T09:11:21.720Z,10.07
2018-05-11T09:13:50.738Z,10.07
2018-05-11T09:16:19.036Z,11.00
2018-05-11T09:18:47.252Z,10.27
2018-05-11T09:21:17.382Z,9.30
2018-05-11T09:23:46.046Z,9.20
2018-05-11T09:26:14.333Z,9.20
2018-05-11T09:28:42.678Z,9.37
2018-05-11T09:31:10.873Z,9.90
2018-05-11T09:33:39.180Z,10.80
2018-05-11T09:36:07.403Z,9.10
2018-05-11T09:38:37.267Z,8.90
2018-05-11T09:41:06.651Z,8.37
2018-05-11T09:43:35.668Z,10.40
2018-05-11T09:46:03.880Z,8.90
2018-05-11T09:48:32.119Z,11.47
2018-05-11T09:51:00.338Z,11.40
2018-05-11T09:53:28.669Z,10.70
2018-05-11T09:55:56.884Z,10.77
2018-05-11T09:58:25.130Z,11.53
2018-05-11T10:00:53.505Z,10.23
2018-05-11T10:03:21.621Z,11.07
2018-05-11T10:05:49.941Z,11.80
2018-05-11T10:08:18.158Z,11.10
2018-05-11T10:10:46.393Z,11.57
2018-05-11T10:13:15.360Z,11.93
2018-05-11T10:15:50.428Z,11.13
2018-05-11T10:18:18.706Z,11.10
2018-05-11T10:20:46.955Z,11.27
2018-05-11T10:23:16.630Z,10.50
2018-05-11T10:25:44.878Z,11.43
2018-05-11T10:28:13.091Z,11.33
2018-05-11T10:30:41.313Z,11.63
2018-05-11T10:33:09.536Z,11.30
2018-05-11T10:35:37.848Z,11.30
2018-05-11T10:38:06.820Z,11.83
2018-05-11T10:40:35.841Z,11.37
2018-05-11T10:43:04.439Z,10.37
2018-05-11T10:45:32.670Z,10.63
2018-05-11T10:48:00.889Z,11.10
2018-05-11T10:50:29.120Z,10.63
2018-05-11T10:52:58.123Z,11.57
2018-05-11T10:55:27.112Z,10.37
2018-05-11T10:57:56.107Z,10.40
2018-05-11T11:00:25.101Z,11.00
2018-05-11T11:02:54.522Z,10.10
2018-05-11T11:05:25.561Z,10.83
2018-05-11T11:07:57.695Z,10.70
2018-05-11T11:10:26.620Z,11.13
2018-05-11T11:12:54.856Z,11.87
2018-05-11T11:15:23.093Z,10.93
2018-05-11T11:17:51.792Z,10.93
2018-05-11T11:20:20.019Z,11.47
2018-05-11T11:22:49.020Z,10.73
2018-05-11T11:25:19.297Z,10.73
2018-05-11T11:27:47.538Z,10.70
2018-05-11T11:30:15.772Z,11.63
2018-05-11T11:32:44.768Z,11.00
2018-05-11T11:35:13.774Z,11.07
2018-05-11T11:37:41.990Z,10.53
2018-05-11T11:40:10.593Z,11.07
2018-05-11T11:42:38.812Z,11.37
2018-05-11T11:45:07.051Z,11.80
2018-05-11T11:47:35.318Z,11.07
2018-05-11T11:50:03.802Z,11.73
2018-05-11T11:52:32.120Z,10.20
2018-05-11T11:55:01.142Z,11.30
2018-05-11T11:57:29.365Z,11.37
2018-05-11T11:59:58.362Z,10.97
2018-05-11T12:02:27.363Z,11.37
2018-05-11T12:04:56.477Z,11.10
2018-05-11T12:07:24.687Z,11.70
2018-05-11T12:09:52.916Z,11.30
2018-05-11T12:12:21.134Z,11.07
2018-05-11T12:14:49.463Z,10.73
2018-05-11T12:17:17.690Z,10.83
2018-05-11T12:19:45.907Z,10.20
2018-05-11T12:22:14.898Z,11.27
2018-05-11T12:24:45.013Z,12.07
2018-05-11T12:27:14.012Z,10.10
2018-05-11T12:29:43.000Z,10.20
2018-05-11T12:32:11.996Z,11.47
2018-05-11T12:34:40.981Z,9.97
2018-05-11T12:37:10.018Z,11.03
2018-05-11T12:39:38.248Z,10.20
2018-05-11T12:42:07.249Z,10.47
2018-05-11T12:44:36.232Z,10.90
2018-05-11T12:47:05.224Z,10.60
2018-05-11T12:49:34.212Z,11.00
2018-05-11T12:52:03.220Z,11.27
2018-05-11T12:54:31.501Z,10.40
2018-05-11T12:56:59.679Z,10.70
2018-05-11T12:59:27.896Z,11.37
2018-05-11T13:01:56.228Z,9.80
2018-05-11T13:04:24.528Z,9.67
2018-05-11T13:06:52.764Z,9.80
2018-05-11T13:09:20.976Z,9.17
2018-05-11T13:11:49.205Z,8.53
2018-05-11T13:14:17.511Z,9.60
2018-05-11T13:16:45.742Z,8.70
2018-05-11T13:19:13.957Z,9.33
2018-05-11T13:21:42.228Z,8.83
2018-05-11T13:24:11.284Z,9.60
2018-05-11T13:26:39.549Z,8.17
2018-05-11T13:29:07.765Z,7.73
2018-05-11T13:31:36.757Z,7.60
2018-05-11T13:34:05.740Z,7.90
2018-05-11T13:36:34.033Z,8.20
2018-05-11T13:39:02.262Z,8.27
2018-05-11T13:41:30.545Z,8.00
2018-05-11T13:43:58.724Z,8.50
2018-05-11T13:46:27.037Z,8.10
2018-05-11T13:48:55.253Z,8.03
2018-05-11T13:51:23.492Z,7.27
2018-05-11T13:53:51.766Z,6.97
2018-05-11T13:56:20.055Z,7.30
2018-05-11T13:58:48.253Z,7.13
2018-05-11T14:01:16.475Z,6.60
2018-05-11T14:03:45.468Z,7.27
2018-05-11T14:06:14.449Z,6.87
2018-05-11T14:08:42.694Z,7.17
2018-05-11T14:11:10.896Z,7.23
2018-05-11T14:13:39.941Z,7.03
2018-05-11T14:16:08.149Z,6.87
2018-05-11T14:18:36.419Z,7.67
2018-05-11T14:21:04.629Z,7.27
2018-05-11T14:23:33.632Z,6.93
2018-05-11T14:26:02.664Z,7.77
2018-05-11T14:28:30.940Z,7.17
2018-05-11T14:30:59.146Z,6.47
2018-05-11T14:33:27.398Z,7.43
2018-05-11T14:35:55.622Z,7.00
2018-05-11T14:38:24.612Z,7.33
2018-05-11T14:40:53.609Z,7.03
2018-05-11T14:43:22.984Z,7.50
2018-05-11T14:45:51.202Z,7.10
2018-05-11T14:48:19.436Z,6.97
2018-05-11T14:50:47.653Z,7.70
2018-05-11T14:53:15.890Z,8.00
2018-05-11T14:55:44.104Z,8.63
2018-05-11T14:58:12.342Z,7.37
2018-05-11T15:00:41.322Z,9.00
2018-05-11T15:03:09.819Z,7.20
2018-05-11T15:05:38.793Z,8.63
2018-05-11T15:08:07.030Z,8.10
2018-05-11T15:10:35.257Z,6.80
2018-05-11T15:13:04.268Z,5.73
2018-05-11T15:15:32.564Z,7.87
2018-05-11T15:18:00.724Z,7.77
2018-05-11T15:20:28.935Z,7.43
2018-05-11T15:22:57.163Z,8.50
2018-05-11T15:25:25.410Z,7.20
2018-05-11T15:27:53.616Z,6.70
2018-05-11T15:30:21.892Z,6.03
2018-05-11T15:32:50.124Z,6.10
2018-05-11T15:35:18.453Z,6.73
2018-05-11T15:37:46.676Z,6.77
2018-05-11T15:40:14.928Z,5.93
2018-05-11T15:42:43.128Z,6.40
2018-05-11T15:45:12.861Z,6.93
2018-05-11T15:47:41.088Z,6.13
2018-05-11T15:50:09.595Z,6.90
2018-05-11T15:52:37.829Z,5.93
2018-05-11T15:55:06.041Z,6.27
2018-05-11T15:57:34.266Z,6.13
2018-05-11T16:00:02.796Z,6.37
2018-05-11T16:02:31.123Z,6.60
2018-05-11T16:04:59.356Z,6.87
2018-05-11T16:07:27.661Z,5.77
2018-05-11T16:09:56.016Z,6.40
2018-05-11T16:12:24.229Z,10.77
2018-05-11T16:14:52.449Z,7.23
2018-05-11T16:17:20.679Z,6.83
2018-05-11T16:19:48.937Z,6.13
2018-05-11T16:22:17.911Z,5.60
2018-05-11T16:24:47.640Z,5.90
2018-05-11T16:27:16.615Z,6.27
2018-05-11T16:29:45.636Z,6.23
2018-05-11T16:32:13.854Z,7.00
2018-05-11T16:34:42.106Z,6.30
2018-05-11T16:37:10.329Z,5.77
2018-05-11T16:39:38.616Z,5.03
2018-05-11T16:42:06.778Z,6.53
2018-05-11T16:44:35.013Z,6.53
2018-05-11T16:47:03.225Z,6.20
2018-05-11T16:49:31.534Z,6.73
2018-05-11T16:51:59.756Z,7.03
2018-05-11T16:54:27.976Z,6.70
2018-05-11T16:56:56.186Z,5.57
2018-05-11T16:59:24.417Z,5.50
2018-05-11T17:01:53.417Z,5.97
2018-05-11T17:04:21.643Z,5.87
2018-05-11T17:06:49.866Z,5.87
2018-05-11T17:09:18.968Z,5.53
2018-05-11T17:11:47.166Z,5.43
2018-05-11T17:14:15.444Z,6.73
2018-05-11T17:16:43.652Z,4.70
2018-05-11T17:19:11.908Z,5.37
2018-05-11T17:21:40.084Z,5.27
2018-05-11T17:24:08.345Z,6.47
2018-05-11T17:26:36.589Z,6.47
2018-05-11T17:29:05.685Z,7.13
2018-05-11T17:31:33.960Z,6.93
2018-05-11T17:34:02.193Z,6.00
2018-05-11T17:36:30.396Z,6.17
2018-05-11T17:38:59.405Z,6.00
2018-05-11T17:41:27.669Z,5.47
2018-05-11T17:43:56.690Z,7.07
2018-05-11T17:46:24.956Z,7.53
2018-05-11T17:48:53.197Z,7.03
2018-05-11T17:51:21.409Z,6.97
2018-05-11T17:53:49.637Z,6.50
2018-05-11T17:56:17.862Z,6.53
2018-05-11T17:58:46.070Z,5.97
2018-05-11T18:01:14.296Z,6.83
2018-05-11T18:03:42.506Z,5.83
2018-05-11T18:06:10.741Z,6.17
2018-05-11T18:08:38.956Z,6.83
2018-05-11T18:11:07.193Z,6.77
2018-05-11T18:13:36.161Z,6.93
2018-05-11T18:16:04.394Z,7.33
2018-05-11T18:18:32.674Z,8.90
2018-05-11T18:21:00.914Z,7.90
2018-05-11T18:23:29.198Z,8.43
2018-05-11T18:25:57.418Z,7.60
2018-05-11T18:28:26.398Z,7.60
2018-05-11T18:30:54.640Z,6.23
2018-05-11T18:33:23.610Z,6.50
2018-05-11T18:35:52.598Z,5.40
2018-05-11T18:38:21.572Z,5.37
2018-05-11T18:40:49.794Z,6.37
2018-05-11T18:43:18.007Z,8.47
2018-05-11T18:45:46.236Z,9.30
2018-05-11T18:48:14.461Z,6.60
2018-05-11T18:50:42.681Z,6.37
2018-05-11T18:53:11.131Z,6.40
2018-05-11T18:55:39.128Z,6.33
2018-05-11T18:58:07.411Z,5.90
2018-05-11T19:00:35.643Z,5.33
2018-05-11T19:03:04.115Z,5.17
2018-05-11T19:05:32.368Z,4.43
2018-05-11T19:08:00.587Z,5.00
2018-05-11T19:10:28.806Z,4.33
2018-05-11T19:12:57.007Z,4.13
2018-05-11T19:15:25.228Z,4.10
2018-05-11T19:17:53.492Z,4.57
2018-05-11T19:20:21.751Z,5.07
2018-05-11T19:22:49.954Z,4.70
2018-05-11T19:25:18.953Z,4.40
2018-05-11T19:27:47.235Z,4.50
2018-05-11T19:30:15.461Z,4.80
2018-05-11T19:32:43.688Z,4.20
2018-05-11T19:35:11.943Z,4.40
2018-05-11T19:37:40.911Z,4.57
2018-05-11T19:40:09.685Z,4.30
2018-05-11T19:42:37.892Z,4.87
2018-05-11T19:45:06.890Z,7.53
2018-05-11T19:47:35.875Z,8.00
2018-05-11T19:50:05.250Z,5.80
2018-05-11T19:52:34.252Z,6.97
2018-05-11T19:55:02.483Z,5.90
2018-05-11T19:57:30.710Z,5.50
2018-05-11T19:59:59.708Z,5.73
2018-05-11T20:02:27.926Z,5.43
2018-05-11T20:04:56.161Z,5.57
2018-05-11T20:07:25.176Z,5.50
2018-05-11T20:09:53.443Z,5.30
2018-05-11T20:12:21.669Z,5.10
2018-05-11T20:14:49.885Z,4.90
2018-05-11T20:17:18.881Z,5.73
2018-05-11T20:19:47.163Z,5.97
2018-05-11T20:22:16.165Z,5.90
2018-05-11T20:24:44.702Z,6.57
2018-05-11T20:27:12.941Z,6.20
2018-05-11T20:29:41.339Z,6.53
2018-05-11T20:32:09.568Z,6.57
2018-05-11T20:34:37.799Z,6.53
2018-05-11T20:37:06.112Z,6.60
2018-05-11T20:39:34.404Z,6.17
2018-05-11T20:42:02.649Z,6.40
2018-05-11T20:44:31.629Z,5.90
2018-05-11T20:47:00.008Z,6.97
2018-05-11T20:49:28.056Z,6.33
2018-05-11T20:51:56.279Z,6.20
2018-05-11T20:54:24.553Z,6.63
2018-05-11T20:56:52.790Z,6.10
2018-05-11T20:59:20.996Z,6.47
2018-05-11T21:01:49.985Z,6.57
2018-05-11T21:04:18.264Z,6.53
2018-05-11T21:06:47.256Z,5.97
2018-05-11T21:09:16.264Z,5.87
2018-05-11T21:11:44.541Z,5.90
2018-05-11T21:14:13.633Z,6.03
2018-05-11T21:16:41.909Z,6.53
2018-05-11T21:19:10.193Z,6.53
2018-05-11T21:21:38.418Z,6.77
2018-05-11T21:24:06.657Z,7.17
2018-05-11T21:26:34.873Z,7.00
2018-05-11T21:29:03.196Z,7.10
2018-05-11T21:31:31.442Z,6.87
2018-05-11T21:34:00.469Z,7.30
2018-05-11T21:36:28.732Z,7.40
2018-05-11T21:38:56.960Z,6.80
2018-05-11T21:41:25.208Z,7.43
2018-05-11T21:43:53.433Z,7.30
2018-05-11T21:46:21.640Z,7.27
2018-05-11T21:48:49.873Z,7.47
2018-05-11T21:51:18.100Z,7.40
2018-05-11T21:53:46.348Z,7.37
2018-05-11T21:56:14.624Z,7.53
2018-05-11T21:58:43.692Z,7.67
2018-05-11T22:01:11.908Z,7.43
2018-05-11T22:03:40.135Z,8.03
2018-05-11T22:06:09.137Z,7.60
2018-05-11T22:08:37.467Z,7.13
2018-05-11T22:11:05.727Z,7.90
2018-05-11T22:13:33.946Z,7.93
2018-05-11T22:16:02.157Z,7.67
2018-05-11T22:18:31.169Z,7.47
2018-05-11T22:20:59.437Z,7.93
2018-05-11T22:23:27.706Z,7.93
2018-05-11T22:25:55.913Z,8.50
2018-05-11T22:28:24.152Z,8.63
2018-05-11T22:30:53.128Z,8.70
2018-05-11T22:33:22.133Z,8.83
2018-05-11T22:35:51.120Z,8.67
2018-05-11T22:38:20.140Z,8.90
2018-05-11T22:40:48.366Z,9.67
2018-05-11T22:43:16.585Z,9.40
2018-05-11T22:45:44.859Z,9.10
2018-05-11T22:48:13.097Z,9.50
2018-05-11T22:50:41.321Z,9.13
2018-05-11T22:53:09.575Z,10.13
2018-05-11T22:55:38.069Z,9.60
2018-05-11T22:58:06.344Z,8.97
2018-05-11T23:00:41.684Z,8.90
2018-05-11T23:03:10.151Z,9.90
2018-05-11T23:05:39.129Z,9.20
2018-05-11T23:08:08.133Z,10.07
2018-05-11T23:10:36.348Z,9.70
2018-05-11T23:13:04.589Z,9.50
2018-05-11T23:15:32.864Z,9.97
2018-05-11T23:18:01.082Z,9.97
2018-05-11T23:20:29.322Z,10.13
2018-05-11T23:22:57.538Z,9.70
2018-05-11T23:25:25.875Z,10.60
2018-05-11T23:27:54.157Z,10.87
2018-05-11T23:30:22.338Z,10.20
2018-05-11T23:32:50.565Z,10.73
2018-05-11T23:35:19.563Z,10.23
2018-05-11T23:37:48.552Z,9.83
2018-05-11T23:40:17.164Z,11.03
2018-05-11T23:42:45.393Z,10.97
2018-05-11T23:45:13.613Z,10.53
2018-05-11T23:47:42.369Z,10.30
2018-05-11T23:50:10.805Z,11.27
2018-05-11T23:52:39.009Z,14.27
2018-05-11T23:55:07.337Z,12.90
2018-05-11T23:57:35.564Z,11.10
